createdAt,value
2022-11-17T00:00:49.644Z,3.95
2022-11-17T00:01:51.248Z,1.65
2022-11-17T00:02:53.055Z,2.38
2022-11-17T00:03:54.779Z,3.50
2022-11-17T00:04:56.333Z,2.20
2022-11-17T00:06:02.222Z,2.30
2022-11-17T00:07:03.902Z,2.65
2022-11-17T00:08:05.641Z,2.25
2022-11-17T00:09:17.465Z,3.08
2022-11-17T00:10:19.547Z,2.78
2022-11-17T00:11:21.329Z,2.22
2022-11-17T00:12:42.008Z,3.40
2022-11-17T00:14:02.218Z,2.10
2022-11-17T00:15:04.109Z,3.15
2022-11-17T00:16:06.054Z,2.25
2022-11-17T00:17:11.030Z,3.05
2022-11-17T00:18:31.443Z,2.03
2022-11-17T00:19:57.366Z,2.28
2022-11-17T00:21:17.615Z,2.20
2022-11-17T00:22:19.857Z,4.80
2022-11-17T00:23:21.524Z,3.25
2022-11-17T00:24:24.173Z,8.45
2022-11-17T00:25:27.903Z,3.20
2022-11-17T00:26:34.590Z,2.40
2022-11-17T00:27:36.411Z,4.00
2022-11-17T00:28:38.226Z,2.03
2022-11-17T00:29:39.928Z,2.95
2022-11-17T00:31:00.417Z,4.00
2022-11-17T00:32:20.627Z,2.50
2022-11-17T00:33:40.914Z,8.30
2022-11-17T00:34:42.703Z,2.97
2022-11-17T00:35:46.002Z,4.30
2022-11-17T00:36:48.694Z,7.00
2022-11-17T00:38:08.799Z,4.72
2022-11-17T00:39:11.737Z,2.55
2022-11-17T00:40:14.025Z,2.30
2022-11-17T00:41:15.783Z,2.92
2022-11-17T00:42:17.432Z,3.40
2022-11-17T00:43:19.066Z,2.10
2022-11-17T00:44:21.056Z,4.65
2022-11-17T00:45:22.666Z,2.33
2022-11-17T00:46:24.242Z,2.40
2022-11-17T00:47:25.860Z,5.13
2022-11-17T00:48:27.522Z,3.58
2022-11-17T00:49:29.608Z,2.13
2022-11-17T00:50:33.738Z,3.78
2022-11-17T00:51:36.231Z,2.67
2022-11-17T00:52:37.889Z,8.60
2022-11-17T00:53:39.469Z,4.03
2022-11-17T00:54:41.086Z,3.35
2022-11-17T00:55:42.953Z,2.53
2022-11-17T00:56:44.820Z,3.28
2022-11-17T00:57:46.457Z,2.33
2022-11-17T00:58:48.148Z,1.70
2022-11-17T00:59:49.748Z,4.10
2022-11-17T01:00:51.505Z,3.10
2022-11-17T01:01:53.352Z,3.25
2022-11-17T01:02:57.175Z,4.38
2022-11-17T01:04:05.408Z,2.15
2022-11-17T01:05:07.299Z,4.40
2022-11-17T01:06:11.656Z,4.82
2022-11-17T01:07:13.303Z,5.60
2022-11-17T01:08:14.899Z,2.90
2022-11-17T01:09:19.775Z,2.17
2022-11-17T01:10:21.302Z,2.65
2022-11-17T01:11:22.962Z,1.95
2022-11-17T01:12:24.614Z,2.60
2022-11-17T01:13:26.178Z,2.20
2022-11-17T01:14:31.099Z,2.50
2022-11-17T01:15:34.146Z,2.35
2022-11-17T01:16:35.794Z,2.65
2022-11-17T01:17:37.526Z,3.08
2022-11-17T01:18:39.879Z,2.83
2022-11-17T01:19:41.433Z,5.07
2022-11-17T01:20:43.243Z,5.35
2022-11-17T01:21:45.363Z,4.00
2022-11-17T01:22:46.896Z,2.58
2022-11-17T01:23:50.678Z,1.92
2022-11-17T01:24:52.212Z,2.75
2022-11-17T01:25:53.879Z,3.45
2022-11-17T01:26:55.841Z,4.95
2022-11-17T01:27:57.444Z,3.38
2022-11-17T01:29:00.656Z,3.75
2022-11-17T01:30:02.408Z,2.22
2022-11-17T01:31:11.983Z,1.83
2022-11-17T01:32:13.660Z,2.00
2022-11-17T01:33:15.346Z,3.55
2022-11-17T01:34:17.128Z,3.35
2022-11-17T01:35:20.942Z,4.40
2022-11-17T01:36:25.475Z,1.55
2022-11-17T01:37:27.716Z,2.45
2022-11-17T01:38:29.965Z,3.42
2022-11-17T01:39:32.178Z,2.25
2022-11-17T01:40:36.543Z,1.80
2022-11-17T01:41:38.849Z,3.28
2022-11-17T01:42:40.869Z,3.38
2022-11-17T01:43:46.090Z,1.63
2022-11-17T01:45:16.718Z,3.45
2022-11-17T01:46:30.895Z,1.35
2022-11-17T01:47:50.518Z,3.35
2022-11-17T01:48:55.925Z,1.88
2022-11-17T01:50:22.888Z,1.30
2022-11-17T01:51:25.296Z,1.90
2022-11-17T01:52:29.360Z,1.77
2022-11-17T01:53:33.863Z,1.70
2022-11-17T01:54:40.486Z,1.10
2022-11-17T01:55:46.906Z,1.33
2022-11-17T01:56:54.671Z,4.68
2022-11-17T01:58:21.495Z,3.25
2022-11-17T01:59:34.596Z,2.28
2022-11-17T02:00:36.265Z,1.63
2022-11-17T02:01:56.059Z,1.83
2022-11-17T02:02:59.001Z,1.77
2022-11-17T02:04:01.128Z,1.67
2022-11-17T02:05:28.560Z,3.38
2022-11-17T02:06:35.337Z,2.05
2022-11-17T02:07:39.403Z,1.80
2022-11-17T02:08:45.511Z,2.65
2022-11-17T02:09:47.711Z,4.10
2022-11-17T02:10:51.953Z,1.40
2022-11-17T02:11:57.927Z,3.55
2022-11-17T02:13:01.515Z,2.13
2022-11-17T02:14:06.283Z,1.80
2022-11-17T02:15:09.042Z,1.40
2022-11-17T02:16:12.713Z,2.03
2022-11-17T02:17:14.757Z,1.45
2022-11-17T02:18:17.609Z,1.83
2022-11-17T02:19:22.369Z,1.35
2022-11-17T02:21:01.421Z,1.60
2022-11-17T02:22:09.439Z,3.33
2022-11-17T02:23:28.943Z,3.50
2022-11-17T02:25:04.120Z,1.60
2022-11-17T02:26:39.031Z,1.90
2022-11-17T02:27:55.483Z,1.92
2022-11-17T02:29:09.646Z,3.28
2022-11-17T02:30:15.616Z,1.08
2022-11-17T02:31:51.335Z,1.43
2022-11-17T02:33:08.875Z,3.73
2022-11-17T02:34:40.847Z,1.95
2022-11-17T02:36:15.222Z,1.73
2022-11-17T02:37:36.187Z,6.17
2022-11-17T02:39:20.700Z,1.10
2022-11-17T02:40:44.027Z,6.82
2022-11-17T02:42:43.652Z,1.55
2022-11-17T02:44:05.900Z,1.53
2022-11-17T02:45:11.376Z,2.00
2022-11-17T02:46:19.358Z,1.85
2022-11-17T02:47:28.800Z,1.40
2022-11-17T02:48:40.113Z,2.53
2022-11-17T02:49:47.772Z,4.88
2022-11-17T02:50:50.972Z,2.05
2022-11-17T02:51:56.381Z,1.70
2022-11-17T02:52:57.963Z,2.00
2022-11-17T02:54:00.180Z,3.38
2022-11-17T02:55:08.807Z,2.42
2022-11-17T02:56:11.182Z,2.67
2022-11-17T02:57:29.838Z,2.60
2022-11-17T02:58:31.468Z,2.50
2022-11-17T02:59:43.382Z,2.58
2022-11-17T03:01:03.604Z,2.85
2022-11-17T03:02:34.426Z,3.42
2022-11-17T03:03:53.034Z,3.30
2022-11-17T03:05:09.011Z,5.47
2022-11-17T03:06:23.505Z,2.30
2022-11-17T03:07:36.937Z,2.88
2022-11-17T03:08:50.098Z,2.90
2022-11-17T03:10:10.373Z,2.53
2022-11-17T03:11:13.314Z,3.45
2022-11-17T03:12:22.631Z,5.53
2022-11-17T03:13:26.457Z,2.40
2022-11-17T03:14:49.776Z,2.90
2022-11-17T03:16:02.577Z,5.55
2022-11-17T03:17:11.223Z,4.45
2022-11-17T03:18:44.769Z,5.50
2022-11-17T03:19:55.860Z,3.55
2022-11-17T03:21:15.110Z,4.65
2022-11-17T03:22:28.129Z,4.22
2022-11-17T03:23:41.099Z,3.22
2022-11-17T03:24:51.200Z,2.78
2022-11-17T03:25:57.973Z,3.95
2022-11-17T03:27:23.912Z,2.92
2022-11-17T03:28:32.779Z,4.15
2022-11-17T03:29:37.429Z,2.88
2022-11-17T03:30:42.975Z,1.92
2022-11-17T03:31:47.453Z,2.65
2022-11-17T03:32:54.068Z,6.47
2022-11-17T03:33:56.837Z,2.90
2022-11-17T03:35:06.799Z,3.10
2022-11-17T03:36:16.056Z,3.95
2022-11-17T03:37:21.796Z,3.17
2022-11-17T03:38:27.841Z,3.53
2022-11-17T03:39:36.883Z,2.72
2022-11-17T03:40:43.039Z,3.88
2022-11-17T03:41:48.461Z,2.90
2022-11-17T03:42:54.036Z,2.95
2022-11-17T03:43:57.705Z,3.00
2022-11-17T03:45:22.039Z,3.25
2022-11-17T03:46:27.271Z,2.20
2022-11-17T03:47:32.043Z,2.20
2022-11-17T03:48:48.753Z,2.28
2022-11-17T03:49:56.303Z,3.47
2022-11-17T03:51:16.600Z,2.60
2022-11-17T03:52:20.433Z,2.30
2022-11-17T03:53:23.111Z,4.93
2022-11-17T03:54:25.025Z,2.38
2022-11-17T03:55:36.901Z,4.38
2022-11-17T03:56:51.420Z,2.90
2022-11-17T03:58:05.500Z,2.63
2022-11-17T03:59:18.644Z,2.70
2022-11-17T04:00:20.644Z,4.82
2022-11-17T04:01:25.729Z,2.70
2022-11-17T04:02:28.410Z,2.63
2022-11-17T04:03:34.515Z,3.35
2022-11-17T04:04:55.071Z,2.65
2022-11-17T04:06:00.531Z,3.50
2022-11-17T04:07:02.466Z,7.30
2022-11-17T04:08:04.607Z,4.70
2022-11-17T04:09:07.481Z,3.03
2022-11-17T04:10:11.920Z,3.50
2022-11-17T04:11:32.580Z,2.75
2022-11-17T04:12:53.362Z,4.18
2022-11-17T04:14:13.370Z,3.30
2022-11-17T04:15:34.167Z,3.22
2022-11-17T04:16:36.325Z,4.40
2022-11-17T04:17:38.058Z,3.63
2022-11-17T04:18:39.642Z,2.40
2022-11-17T04:19:41.321Z,2.83
2022-11-17T04:20:43.249Z,3.22
2022-11-17T04:21:47.531Z,9.68
2022-11-17T04:23:07.446Z,2.28
2022-11-17T04:24:09.263Z,2.45
2022-11-17T04:25:31.008Z,1.85
2022-11-17T04:26:51.279Z,2.78
2022-11-17T04:28:11.474Z,2.58
2022-11-17T04:29:13.135Z,3.80
2022-11-17T04:30:14.920Z,2.08
2022-11-17T04:31:24.087Z,2.60
2022-11-17T04:32:25.710Z,2.30
2022-11-17T04:33:27.385Z,1.90
2022-11-17T04:34:29.083Z,3.38
2022-11-17T04:35:31.068Z,2.20
2022-11-17T04:36:36.467Z,2.65
2022-11-17T04:37:38.308Z,3.70
2022-11-17T04:38:47.954Z,2.40
2022-11-17T04:39:49.540Z,2.35
2022-11-17T04:41:10.198Z,5.55
2022-11-17T04:42:14.608Z,3.55
2022-11-17T04:43:16.485Z,3.00
2022-11-17T04:44:18.990Z,2.50
2022-11-17T04:45:20.523Z,3.10
2022-11-17T04:46:23.647Z,2.55
2022-11-17T04:47:28.057Z,3.45
2022-11-17T04:48:29.694Z,3.42
2022-11-17T04:49:32.178Z,2.60
2022-11-17T04:50:34.072Z,2.40
2022-11-17T04:51:36.695Z,4.40
2022-11-17T04:52:43.161Z,2.70
2022-11-17T04:53:45.291Z,4.03
2022-11-17T04:54:46.905Z,2.90
2022-11-17T04:55:48.493Z,3.90
2022-11-17T04:56:50.574Z,3.38
2022-11-17T04:57:52.249Z,4.72
2022-11-17T04:58:54.489Z,2.25
2022-11-17T04:59:56.084Z,3.53
2022-11-17T05:01:12.192Z,2.65
2022-11-17T05:02:13.792Z,11.82
2022-11-17T05:03:15.505Z,3.03
2022-11-17T05:04:38.871Z,2.22
2022-11-17T05:05:40.591Z,4.63
2022-11-17T05:06:44.950Z,4.25
2022-11-17T05:07:46.467Z,2.53
2022-11-17T05:08:48.210Z,3.10
2022-11-17T05:09:49.833Z,2.67
2022-11-17T05:11:09.981Z,3.13
2022-11-17T05:12:44.235Z,1.60
2022-11-17T05:13:45.847Z,5.32
2022-11-17T05:14:49.180Z,1.90
2022-11-17T05:16:16.115Z,1.80
2022-11-17T05:17:18.049Z,1.88
2022-11-17T05:18:19.780Z,1.67
2022-11-17T05:19:24.017Z,3.70
2022-11-17T05:20:25.597Z,1.85
2022-11-17T05:21:27.141Z,2.55
2022-11-17T05:22:47.783Z,2.45
2022-11-17T05:23:55.411Z,1.70
2022-11-17T05:24:57.439Z,1.90
2022-11-17T05:25:58.979Z,1.70
2022-11-17T05:27:00.576Z,4.43
2022-11-17T05:28:02.101Z,2.53
2022-11-17T05:29:05.836Z,9.82
2022-11-17T05:30:09.061Z,4.38
2022-11-17T05:31:10.958Z,1.42
2022-11-17T05:32:12.575Z,5.18
2022-11-17T05:33:16.672Z,7.28
2022-11-17T05:34:18.317Z,10.00
2022-11-17T05:35:19.997Z,2.95
2022-11-17T05:36:23.035Z,1.90
2022-11-17T05:37:26.944Z,3.30
2022-11-17T05:38:28.588Z,2.67
2022-11-17T05:39:30.164Z,4.95
2022-11-17T05:40:31.743Z,0.95
2022-11-17T05:41:33.845Z,2.53
2022-11-17T05:42:38.513Z,1.40
2022-11-17T05:43:40.341Z,5.40
2022-11-17T05:44:45.631Z,2.55
2022-11-17T05:45:49.650Z,4.70
2022-11-17T05:46:51.333Z,3.35
2022-11-17T05:47:53.225Z,2.78
2022-11-17T05:48:55.156Z,2.42
2022-11-17T05:49:56.835Z,1.87
2022-11-17T05:50:58.442Z,1.47
2022-11-17T05:52:00.226Z,3.90
2022-11-17T05:53:04.812Z,2.17
2022-11-17T05:54:06.444Z,2.27
2022-11-17T05:55:08.466Z,2.50
2022-11-17T05:56:28.518Z,0.97
2022-11-17T05:57:33.852Z,1.40
2022-11-17T05:58:39.544Z,2.67
2022-11-17T05:59:46.417Z,4.22
2022-11-17T06:00:58.383Z,6.10
2022-11-17T06:02:15.089Z,2.00
2022-11-17T06:03:25.190Z,5.17
2022-11-17T06:04:26.996Z,3.80
2022-11-17T06:05:31.125Z,5.00
2022-11-17T06:06:37.343Z,5.43
2022-11-17T06:07:40.792Z,4.83
2022-11-17T06:08:42.970Z,9.87
2022-11-17T06:09:46.082Z,7.40
2022-11-17T06:10:47.761Z,1.93
2022-11-17T06:11:49.358Z,4.87
2022-11-17T06:12:51.069Z,2.65
2022-11-17T06:13:52.600Z,5.60
2022-11-17T06:14:54.378Z,4.93
2022-11-17T06:15:59.594Z,3.15
2022-11-17T06:17:06.689Z,7.18
2022-11-17T06:18:14.059Z,6.05
2022-11-17T06:19:23.622Z,2.50
2022-11-17T06:20:30.212Z,2.60
2022-11-17T06:21:49.466Z,3.43
2022-11-17T06:22:57.957Z,2.70
2022-11-17T06:24:00.265Z,4.90
2022-11-17T06:25:04.599Z,5.23
2022-11-17T06:26:11.191Z,2.83
2022-11-17T06:27:17.984Z,2.80
2022-11-17T06:28:22.468Z,5.57
2022-11-17T06:29:24.613Z,8.73
2022-11-17T06:30:27.245Z,1.73
2022-11-17T06:31:28.917Z,5.70
2022-11-17T06:32:32.865Z,5.73
2022-11-17T06:33:38.538Z,3.70
2022-11-17T06:34:41.163Z,4.47
2022-11-17T06:35:45.425Z,4.57
2022-11-17T06:36:49.964Z,5.07
2022-11-17T06:37:51.670Z,3.27
2022-11-17T06:38:53.226Z,3.83
2022-11-17T06:39:57.150Z,3.83
2022-11-17T06:40:58.674Z,2.80
2022-11-17T06:42:00.244Z,12.30
2022-11-17T06:43:08.321Z,2.10
2022-11-17T06:44:12.016Z,8.23
2022-11-17T06:45:16.373Z,2.93
2022-11-17T06:46:19.178Z,4.80
2022-11-17T06:47:22.330Z,8.00
2022-11-17T06:48:27.131Z,6.63
2022-11-17T06:49:31.724Z,3.17
2022-11-17T06:50:53.645Z,7.77
2022-11-17T06:51:58.368Z,3.90
2022-11-17T06:53:02.289Z,2.67
2022-11-17T06:54:09.052Z,3.00
2022-11-17T06:55:10.913Z,2.60
2022-11-17T06:56:13.781Z,3.50
2022-11-17T06:57:15.469Z,6.97
2022-11-17T06:58:19.853Z,2.30
2022-11-17T06:59:24.958Z,10.60
2022-11-17T07:00:27.953Z,3.63
2022-11-17T07:01:32.082Z,9.47
2022-11-17T07:02:37.303Z,2.23
2022-11-17T07:03:41.681Z,5.80
2022-11-17T07:04:46.500Z,2.23
2022-11-17T07:05:50.768Z,4.63
2022-11-17T07:06:55.414Z,3.33
2022-11-17T07:08:04.792Z,7.57
2022-11-17T07:09:07.124Z,3.60
2022-11-17T07:10:12.023Z,2.90
2022-11-17T07:11:17.486Z,2.73
2022-11-17T07:12:19.604Z,1.40
2022-11-17T07:13:25.082Z,6.47
2022-11-17T07:14:26.804Z,3.63
2022-11-17T07:15:32.518Z,4.00
2022-11-17T07:16:34.165Z,1.53
2022-11-17T07:17:35.877Z,2.33
2022-11-17T07:18:38.832Z,3.60
2022-11-17T07:19:41.051Z,5.63
2022-11-17T07:20:43.032Z,1.67
2022-11-17T07:21:44.674Z,8.20
2022-11-17T07:22:47.197Z,1.87
2022-11-17T07:23:49.884Z,7.10
2022-11-17T07:24:53.049Z,7.60
2022-11-17T07:25:54.959Z,5.57
2022-11-17T07:26:56.565Z,3.13
2022-11-17T07:27:59.603Z,4.20
2022-11-17T07:29:04.336Z,5.03
2022-11-17T07:30:07.462Z,5.70
2022-11-17T07:31:09.679Z,2.63
2022-11-17T07:32:13.837Z,3.03
2022-11-17T07:33:15.654Z,3.50
2022-11-17T07:34:17.247Z,1.90
2022-11-17T07:35:21.120Z,3.97
2022-11-17T07:36:22.956Z,2.70
2022-11-17T07:37:24.551Z,6.30
2022-11-17T07:38:26.174Z,4.43
2022-11-17T07:39:27.821Z,2.30
2022-11-17T07:40:31.102Z,1.80
2022-11-17T07:41:36.051Z,2.50
2022-11-17T07:42:37.843Z,3.10
2022-11-17T07:43:40.410Z,2.97
2022-11-17T07:44:42.292Z,3.90
2022-11-17T07:45:46.950Z,4.73
2022-11-17T07:46:51.371Z,2.93
2022-11-17T07:47:57.506Z,5.13
2022-11-17T07:48:59.281Z,1.73
2022-11-17T07:50:04.328Z,4.70
2022-11-17T07:51:08.561Z,5.70
2022-11-17T07:52:10.534Z,5.07
2022-11-17T07:53:19.264Z,6.07
2022-11-17T07:54:28.206Z,4.03
2022-11-17T07:55:32.767Z,2.60
2022-11-17T07:56:37.742Z,1.83
2022-11-17T07:57:42.617Z,3.47
2022-11-17T07:58:44.452Z,8.27
2022-11-17T07:59:46.275Z,1.37
2022-11-17T08:00:50.824Z,3.07
2022-11-17T08:01:52.930Z,1.53
2022-11-17T08:02:55.331Z,4.20
2022-11-17T08:03:57.995Z,2.20
2022-11-17T08:05:02.329Z,2.17
2022-11-17T08:06:07.962Z,1.03
2022-11-17T08:07:19.449Z,2.40
2022-11-17T08:08:32.642Z,4.93
2022-11-17T08:09:40.365Z,3.03
2022-11-17T08:10:43.234Z,6.20
2022-11-17T08:11:45.104Z,1.60
2022-11-17T08:12:55.963Z,3.83
2022-11-17T08:13:58.847Z,1.63
2022-11-17T08:15:03.806Z,3.17
2022-11-17T08:16:06.870Z,3.50
2022-11-17T08:17:09.077Z,3.77
2022-11-17T08:18:14.525Z,6.27
2022-11-17T08:19:18.616Z,4.40
2022-11-17T08:20:27.775Z,3.40
2022-11-17T08:21:29.527Z,1.20
2022-11-17T08:22:34.055Z,1.90
2022-11-17T08:23:38.811Z,1.57
2022-11-17T08:24:54.624Z,2.30
2022-11-17T08:26:04.763Z,3.17
2022-11-17T08:27:28.243Z,3.17
2022-11-17T08:28:31.844Z,6.33
2022-11-17T08:29:33.793Z,2.17
2022-11-17T08:30:40.199Z,2.10
2022-11-17T08:31:48.377Z,4.00
2022-11-17T08:33:07.939Z,2.03
2022-11-17T08:34:17.625Z,3.70
2022-11-17T08:35:22.384Z,3.60
2022-11-17T08:36:26.480Z,4.43
2022-11-17T08:37:31.806Z,4.07
2022-11-17T08:38:36.979Z,3.57
2022-11-17T08:39:46.399Z,5.27
2022-11-17T08:40:49.470Z,3.23
2022-11-17T08:41:54.295Z,6.37
2022-11-17T08:43:00.673Z,3.10
2022-11-17T08:44:03.543Z,5.70
2022-11-17T08:45:06.533Z,2.30
2022-11-17T08:46:12.835Z,6.20
2022-11-17T08:47:16.942Z,8.30
2022-11-17T08:48:19.216Z,4.83
2022-11-17T08:49:26.772Z,4.63
2022-11-17T08:50:33.608Z,4.07
2022-11-17T08:51:37.907Z,4.53
2022-11-17T08:52:42.008Z,2.03
2022-11-17T08:53:46.892Z,6.47
2022-11-17T08:55:00.130Z,7.93
2022-11-17T08:56:09.413Z,6.43
2022-11-17T08:57:14.068Z,5.87
2022-11-17T08:58:23.599Z,3.67
2022-11-17T08:59:34.696Z,3.33
2022-11-17T09:00:36.732Z,2.93
2022-11-17T09:01:40.798Z,7.00
2022-11-17T09:02:46.501Z,11.20
2022-11-17T09:03:48.927Z,2.83
2022-11-17T09:04:50.959Z,7.80
2022-11-17T09:05:55.667Z,11.90
2022-11-17T09:07:00.207Z,5.07
2022-11-17T09:08:29.661Z,4.47
2022-11-17T09:09:30.096Z,3.70
2022-11-17T09:10:32.365Z,3.53
2022-11-17T09:11:46.157Z,7.83
2022-11-17T09:12:50.845Z,4.33
2022-11-17T09:14:04.272Z,4.50
2022-11-17T09:15:09.254Z,2.80
2022-11-17T09:16:11.934Z,3.63
2022-11-17T09:17:13.710Z,2.70
2022-11-17T09:18:18.519Z,3.97
2022-11-17T09:19:20.353Z,5.23
2022-11-17T09:20:22.672Z,3.37
2022-11-17T09:21:26.336Z,7.57
2022-11-17T09:22:28.660Z,4.57
2022-11-17T09:23:31.775Z,2.87
2022-11-17T09:24:33.539Z,3.10
2022-11-17T09:25:36.691Z,3.80
2022-11-17T09:26:41.247Z,3.17
2022-11-17T09:27:43.045Z,5.77
2022-11-17T09:28:45.279Z,6.17
2022-11-17T09:29:54.304Z,4.37
2022-11-17T09:30:55.957Z,5.97
2022-11-17T09:31:57.828Z,2.60
2022-11-17T09:32:59.440Z,3.67
2022-11-17T09:34:05.281Z,5.07
2022-11-17T09:35:09.437Z,4.10
2022-11-17T09:36:12.583Z,3.53
2022-11-17T09:37:14.320Z,6.03
2022-11-17T09:38:16.419Z,3.33
2022-11-17T09:39:18.561Z,4.53
2022-11-17T09:40:24.535Z,2.00
2022-11-17T09:41:44.914Z,4.63
2022-11-17T09:42:50.487Z,10.43
2022-11-17T09:44:03.881Z,4.47
2022-11-17T09:45:20.945Z,11.13
2022-11-17T09:46:31.990Z,7.60
2022-11-17T09:48:12.412Z,5.87
2022-11-17T09:49:37.578Z,3.00
2022-11-17T09:50:40.827Z,4.40
2022-11-17T09:51:47.822Z,5.77
2022-11-17T09:52:54.224Z,8.27
2022-11-17T09:54:12.287Z,2.70
2022-11-17T09:55:41.042Z,6.80
2022-11-17T09:56:47.586Z,3.10
2022-11-17T09:58:27.649Z,12.60
2022-11-17T09:59:35.678Z,8.53
2022-11-17T10:00:45.996Z,9.00
2022-11-17T10:01:53.764Z,7.13
2022-11-17T10:03:11.085Z,6.60
2022-11-17T10:04:38.975Z,8.03
2022-11-17T10:05:44.248Z,4.30
2022-11-17T10:06:50.521Z,6.10
2022-11-17T10:07:55.621Z,6.83
2022-11-17T10:09:15.258Z,4.13
2022-11-17T10:10:22.581Z,6.63
2022-11-17T10:11:36.608Z,6.93
2022-11-17T10:12:47.609Z,6.13
2022-11-17T10:13:50.853Z,3.03
2022-11-17T10:14:54.411Z,5.43
2022-11-17T10:16:05.546Z,5.73
2022-11-17T10:17:10.765Z,3.43
2022-11-17T10:18:17.345Z,9.23
2022-11-17T10:19:20.260Z,5.70
2022-11-17T10:20:25.263Z,7.03
2022-11-17T10:21:30.821Z,5.53
2022-11-17T10:22:37.071Z,6.10
2022-11-17T10:23:47.878Z,5.03
2022-11-17T10:24:56.729Z,11.67
2022-11-17T10:26:01.433Z,6.30
2022-11-17T10:27:19.207Z,7.73
2022-11-17T10:28:34.425Z,8.03
2022-11-17T10:29:36.029Z,8.60
2022-11-17T10:30:38.968Z,11.87
2022-11-17T10:31:46.446Z,8.70
2022-11-17T10:32:53.770Z,14.17
2022-11-17T10:33:55.673Z,4.20
2022-11-17T10:35:13.929Z,11.20
2022-11-17T10:36:32.809Z,7.97
2022-11-17T10:37:34.580Z,12.70
2022-11-17T10:38:36.461Z,6.80
2022-11-17T10:39:40.361Z,7.53
2022-11-17T10:40:41.994Z,3.57
2022-11-17T10:41:50.520Z,6.60
2022-11-17T10:43:28.990Z,5.77
2022-11-17T10:44:33.823Z,4.77
2022-11-17T10:45:35.477Z,7.50
2022-11-17T10:47:00.562Z,4.07
2022-11-17T10:48:37.692Z,4.33
2022-11-17T10:49:39.834Z,6.30
2022-11-17T10:50:55.864Z,8.30
2022-11-17T10:52:18.629Z,3.73
2022-11-17T10:53:36.884Z,9.80
2022-11-17T10:54:41.499Z,5.87
2022-11-17T10:55:44.513Z,6.63
2022-11-17T10:56:55.579Z,8.53
2022-11-17T10:58:29.413Z,7.60
2022-11-17T10:59:44.104Z,7.00
2022-11-17T11:00:54.089Z,8.20
2022-11-17T11:01:56.111Z,3.07
2022-11-17T11:03:15.901Z,7.00
2022-11-17T11:04:35.799Z,3.77
2022-11-17T11:05:37.466Z,4.80
2022-11-17T11:06:39.049Z,9.40
2022-11-17T11:07:41.194Z,4.27
2022-11-17T11:08:56.973Z,2.03
2022-11-17T11:10:17.096Z,1.63
2022-11-17T11:11:43.737Z,4.10
2022-11-17T11:12:54.193Z,4.80
2022-11-17T11:14:12.326Z,3.10
2022-11-17T11:15:24.296Z,4.20
2022-11-17T11:16:29.459Z,1.83
2022-11-17T11:17:31.194Z,4.00
2022-11-17T11:18:32.950Z,3.97
2022-11-17T11:19:34.780Z,2.90
2022-11-17T11:21:01.765Z,7.10
2022-11-17T11:22:19.843Z,2.23
2022-11-17T11:23:31.876Z,4.10
2022-11-17T11:24:58.749Z,3.93
2022-11-17T11:26:03.394Z,3.57
2022-11-17T11:27:16.277Z,5.07
2022-11-17T11:28:26.808Z,2.83
2022-11-17T11:29:59.609Z,8.23
2022-11-17T11:31:30.162Z,6.50
2022-11-17T11:33:00.210Z,7.33
2022-11-17T11:34:19.887Z,2.80
2022-11-17T11:35:45.044Z,5.03
2022-11-17T11:36:55.742Z,6.27
2022-11-17T11:38:21.776Z,7.27
2022-11-17T11:39:29.110Z,5.00
2022-11-17T11:40:39.423Z,7.77
2022-11-17T11:42:08.103Z,2.87
2022-11-17T11:43:46.612Z,7.33
2022-11-17T11:44:54.128Z,3.00
2022-11-17T11:46:01.475Z,9.43
2022-11-17T11:47:40.360Z,6.73
2022-11-17T11:48:41.993Z,5.33
2022-11-17T11:49:54.284Z,4.93
2022-11-17T11:50:58.975Z,14.70
2022-11-17T11:52:04.589Z,4.57
2022-11-17T11:53:24.496Z,4.40
2022-11-17T11:54:49.399Z,5.40
2022-11-17T11:56:15.697Z,6.30
2022-11-17T11:57:21.049Z,12.47
2022-11-17T11:58:24.714Z,3.33
2022-11-17T12:00:04.031Z,5.00
2022-11-17T12:01:09.639Z,9.97
2022-11-17T12:02:11.363Z,8.33
2022-11-17T12:03:33.753Z,14.20
2022-11-17T12:05:04.438Z,3.43
2022-11-17T12:06:41.261Z,10.43
2022-11-17T12:08:04.673Z,8.93
2022-11-17T12:09:15.583Z,8.60
2022-11-17T12:10:26.938Z,6.00
2022-11-17T12:11:47.490Z,9.77
2022-11-17T12:12:49.642Z,7.20
2022-11-17T12:13:54.286Z,6.47
2022-11-17T12:15:31.420Z,12.03
2022-11-17T12:16:36.132Z,9.63
2022-11-17T12:17:54.068Z,11.33
2022-11-17T12:18:55.832Z,10.90
2022-11-17T12:20:09.219Z,5.73
2022-11-17T12:21:13.770Z,10.87
2022-11-17T12:22:35.812Z,13.60
2022-11-17T12:23:55.489Z,9.17
2022-11-17T12:24:58.983Z,5.87
2022-11-17T12:26:02.356Z,8.97
2022-11-17T12:27:35.575Z,15.93
2022-11-17T12:28:41.076Z,17.33
2022-11-17T12:29:47.272Z,6.60
2022-11-17T12:30:51.800Z,4.90
2022-11-17T12:32:02.253Z,7.40
2022-11-17T12:33:09.060Z,9.00
2022-11-17T12:34:38.235Z,10.03
2022-11-17T12:35:40.392Z,8.50
2022-11-17T12:36:44.330Z,5.03
2022-11-17T12:37:46.237Z,10.40
2022-11-17T12:38:48.127Z,8.50
2022-11-17T12:40:04.854Z,8.83
2022-11-17T12:41:17.362Z,6.37
2022-11-17T12:42:19.049Z,11.63
2022-11-17T12:43:27.843Z,15.27
2022-11-17T12:44:37.724Z,11.80
2022-11-17T12:45:58.182Z,11.20
2022-11-17T12:47:21.633Z,7.83
2022-11-17T12:48:34.803Z,9.10
2022-11-17T12:49:58.669Z,11.00
2022-11-17T12:51:15.708Z,8.93
2022-11-17T12:52:38.548Z,10.00
2022-11-17T12:53:49.376Z,10.40
2022-11-17T12:55:13.035Z,13.00
2022-11-17T12:56:55.069Z,9.30
2022-11-17T12:58:25.580Z,6.30
2022-11-17T12:59:44.952Z,6.27
2022-11-17T13:01:08.420Z,10.10
2022-11-17T13:02:53.416Z,6.87
2022-11-17T13:04:17.975Z,12.47
2022-11-17T13:05:26.951Z,6.60
2022-11-17T13:06:36.390Z,7.43
2022-11-17T13:07:38.571Z,11.80
2022-11-17T13:08:41.083Z,10.67
2022-11-17T13:09:49.214Z,10.63
2022-11-17T13:10:51.266Z,13.40
2022-11-17T13:12:23.313Z,10.47
2022-11-17T13:13:25.112Z,7.67
2022-11-17T13:14:27.646Z,5.33
2022-11-17T13:15:29.492Z,12.57
2022-11-17T13:16:31.179Z,12.90
2022-11-17T13:17:43.705Z,7.10
2022-11-17T13:18:46.899Z,12.37
2022-11-17T13:19:58.247Z,18.73
2022-11-17T13:21:03.261Z,15.93
2022-11-17T13:22:11.108Z,11.63
2022-11-17T13:23:19.944Z,17.93
2022-11-17T13:24:33.849Z,12.67
2022-11-17T13:25:35.916Z,12.20
2022-11-17T13:26:38.048Z,16.40
2022-11-17T13:27:47.950Z,12.30
2022-11-17T13:29:08.486Z,11.60
2022-11-17T13:30:23.231Z,6.93
2022-11-17T13:31:24.843Z,18.80
2022-11-17T13:32:28.619Z,10.20
2022-11-17T13:33:34.281Z,16.05
2022-11-17T13:34:50.321Z,15.67
2022-11-17T13:36:16.637Z,10.17
2022-11-17T13:37:27.569Z,14.33
2022-11-17T13:38:29.208Z,11.93
2022-11-17T13:39:31.187Z,8.33
2022-11-17T13:40:34.884Z,8.77
2022-11-17T13:41:39.858Z,8.50
2022-11-17T13:42:42.078Z,10.30
2022-11-17T13:43:46.209Z,10.83
2022-11-17T13:44:48.606Z,10.00
2022-11-17T13:45:52.130Z,12.33
2022-11-17T13:46:53.796Z,15.37
2022-11-17T13:47:56.388Z,6.67
2022-11-17T13:49:01.133Z,5.80
2022-11-17T13:50:27.822Z,6.60
2022-11-17T13:51:42.587Z,16.77
2022-11-17T13:52:47.037Z,11.70
2022-11-17T13:54:13.280Z,10.83
2022-11-17T13:55:19.946Z,23.20
2022-11-17T13:56:26.221Z,6.73
2022-11-17T13:57:29.275Z,12.37
2022-11-17T13:58:39.300Z,11.57
2022-11-17T13:59:41.297Z,11.07
2022-11-17T14:00:53.988Z,14.63
2022-11-17T14:02:19.350Z,9.93
2022-11-17T14:03:36.243Z,7.23
2022-11-17T14:04:38.054Z,11.50
2022-11-17T14:05:55.328Z,10.37
2022-11-17T14:06:56.991Z,10.13
2022-11-17T14:08:12.480Z,15.00
2022-11-17T14:09:18.666Z,10.90
2022-11-17T14:10:20.340Z,13.63
2022-11-17T14:11:23.358Z,11.80
2022-11-17T14:12:25.000Z,11.70
2022-11-17T14:13:39.555Z,11.83
2022-11-17T14:14:44.381Z,13.67
2022-11-17T14:15:53.828Z,19.97
2022-11-17T14:16:55.882Z,8.60
2022-11-17T14:18:03.370Z,11.83
2022-11-17T14:19:24.194Z,14.20
2022-11-17T14:20:25.945Z,13.40
2022-11-17T14:21:28.314Z,16.33
2022-11-17T14:22:31.999Z,6.67
2022-11-17T14:23:34.575Z,13.93
2022-11-17T14:24:37.438Z,11.83
2022-11-17T14:25:50.217Z,19.93
2022-11-17T14:26:52.009Z,10.17
2022-11-17T14:27:54.206Z,10.93
2022-11-17T14:29:02.421Z,18.27
2022-11-17T14:30:05.533Z,19.73
2022-11-17T14:31:15.644Z,7.77
2022-11-17T14:32:20.130Z,11.87
2022-11-17T14:33:22.400Z,16.50
2022-11-17T14:34:26.817Z,11.50
2022-11-17T14:35:33.319Z,13.20
2022-11-17T14:36:37.019Z,11.60
2022-11-17T14:37:38.736Z,10.10
2022-11-17T14:38:41.388Z,20.27
2022-11-17T14:41:07.546Z,9.83
2022-11-17T14:42:11.486Z,22.10
2022-11-17T14:43:13.182Z,15.30
2022-11-17T14:44:25.472Z,12.73
2022-11-17T14:45:30.855Z,8.90
2022-11-17T14:46:34.910Z,15.30
2022-11-17T14:47:37.324Z,11.93
2022-11-17T14:48:40.538Z,18.27
2022-11-17T14:49:59.801Z,19.33
2022-11-17T14:51:11.573Z,16.67
2022-11-17T14:52:13.501Z,15.90
2022-11-17T14:53:15.258Z,9.73
2022-11-17T14:54:16.819Z,16.53
2022-11-17T14:55:22.205Z,15.70
2022-11-17T14:56:26.104Z,14.27
2022-11-17T14:57:27.739Z,14.50
2022-11-17T14:58:29.476Z,14.33
2022-11-17T14:59:35.729Z,25.63
2022-11-17T15:00:37.801Z,19.30
2022-11-17T15:01:39.677Z,12.40
2022-11-17T15:02:41.407Z,18.67
2022-11-17T15:03:43.407Z,10.77
2022-11-17T15:04:53.257Z,8.33